createdAt,value
2019-02-19T00:02:22.713Z,99.90
2019-02-19T00:04:51.101Z,99.90
2019-02-19T00:07:19.493Z,99.90
2019-02-19T00:09:47.877Z,99.90
2019-02-19T00:12:16.281Z,99.90
2019-02-19T00:14:44.662Z,99.90
2019-02-19T00:17:13.048Z,99.90
2019-02-19T00:19:41.445Z,99.90
2019-02-19T00:22:09.833Z,99.90
2019-02-19T00:24:38.223Z,99.90
2019-02-19T00:27:06.612Z,99.90
2019-02-19T00:29:35.021Z,99.90
2019-02-19T00:32:03.407Z,99.90
2019-02-19T00:34:31.785Z,99.90
2019-02-19T00:37:00.188Z,99.90
2019-02-19T00:39:28.572Z,99.90
2019-02-19T00:41:56.972Z,99.90
2019-02-19T00:44:25.380Z,99.90
2019-02-19T00:46:53.760Z,99.90
2019-02-19T00:49:22.140Z,99.90
2019-02-19T00:51:50.528Z,99.90
2019-02-19T00:54:18.922Z,99.90
2019-02-19T00:56:47.308Z,99.90
2019-02-19T00:59:15.688Z,99.90
2019-02-19T01:01:44.076Z,99.90
2019-02-19T01:04:12.469Z,99.90
2019-02-19T01:06:40.857Z,99.90
2019-02-19T01:09:10.089Z,99.90
2019-02-19T01:11:38.548Z,99.90
2019-02-19T01:14:06.938Z,99.90
2019-02-19T01:16:35.330Z,99.90
2019-02-19T01:19:03.717Z,99.90
2019-02-19T01:21:32.109Z,99.90
2019-02-19T01:24:00.501Z,99.90
2019-02-19T01:26:28.905Z,99.90
2019-02-19T01:28:58.354Z,99.90
2019-02-19T01:31:27.272Z,99.90
2019-02-19T01:33:55.660Z,99.90
2019-02-19T01:36:24.048Z,99.90
2019-02-19T01:38:52.440Z,99.90
2019-02-19T01:41:20.825Z,99.90
2019-02-19T01:43:49.225Z,99.90
2019-02-19T01:46:17.612Z,99.90
2019-02-19T01:48:46.012Z,99.90
2019-02-19T01:51:14.408Z,99.90
2019-02-19T01:53:42.797Z,99.90
2019-02-19T01:56:11.200Z,99.90
2019-02-19T01:58:39.587Z,99.90
2019-02-19T02:01:07.989Z,99.90
2019-02-19T02:03:36.376Z,99.90
2019-02-19T02:06:04.850Z,99.90
2019-02-19T02:08:33.248Z,99.90
2019-02-19T02:11:01.642Z,99.90
2019-02-19T02:13:30.036Z,99.90
2019-02-19T02:15:58.428Z,99.90
2019-02-19T02:18:26.845Z,99.90
2019-02-19T02:20:55.237Z,99.90
2019-02-19T02:23:23.620Z,99.90
2019-02-19T02:25:52.036Z,99.90
2019-02-19T02:28:20.755Z,99.90
2019-02-19T02:30:49.137Z,99.90
2019-02-19T02:33:17.528Z,99.90
2019-02-19T02:35:45.931Z,99.90
2019-02-19T02:38:14.394Z,99.90
2019-02-19T02:40:42.789Z,99.90
2019-02-19T02:43:11.256Z,99.90
2019-02-19T02:45:39.661Z,99.90
2019-02-19T02:48:08.049Z,99.90
2019-02-19T02:50:36.445Z,99.90
2019-02-19T02:53:04.918Z,99.90
2019-02-19T02:55:33.304Z,99.90
2019-02-19T02:58:01.705Z,99.90
2019-02-19T03:00:30.094Z,99.90
2019-02-19T03:02:58.497Z,99.90
2019-02-19T03:05:26.908Z,99.90
2019-02-19T03:07:56.934Z,99.90
2019-02-19T03:10:25.335Z,99.90
2019-02-19T03:12:53.800Z,99.90
2019-02-19T03:15:22.266Z,99.90
2019-02-19T03:17:50.903Z,99.90
2019-02-19T03:20:19.424Z,99.90
2019-02-19T03:22:47.817Z,99.90
2019-02-19T03:25:16.217Z,99.90
2019-02-19T03:27:44.607Z,99.90
2019-02-19T03:30:13.081Z,99.90
2019-02-19T03:32:41.479Z,99.90
2019-02-19T03:35:09.869Z,99.90
2019-02-19T03:37:38.347Z,99.90
2019-02-19T03:40:08.966Z,99.90
2019-02-19T03:42:37.428Z,99.90
2019-02-19T03:45:09.226Z,99.90
2019-02-19T03:47:37.604Z,99.90
2019-02-19T03:50:06.869Z,99.90
2019-02-19T03:52:35.260Z,99.90
2019-02-19T03:55:03.805Z,99.90
2019-02-19T03:57:33.145Z,99.90
2019-02-19T04:00:01.543Z,99.90
2019-02-19T04:02:29.955Z,99.90
2019-02-19T04:04:58.332Z,99.90
2019-02-19T04:07:26.721Z,99.90
2019-02-19T04:09:55.133Z,99.90
2019-02-19T04:12:24.600Z,99.90
2019-02-19T04:14:53.015Z,99.90
2019-02-19T04:17:21.392Z,99.90
2019-02-19T04:19:49.784Z,99.90
2019-02-19T04:22:18.177Z,99.90
2019-02-19T04:24:46.581Z,99.90
2019-02-19T04:27:14.969Z,99.90
2019-02-19T04:29:43.352Z,99.90
2019-02-19T04:32:11.748Z,99.90
2019-02-19T04:34:40.144Z,99.90
2019-02-19T04:37:08.540Z,99.90
2019-02-19T04:39:36.946Z,99.90
2019-02-19T04:42:05.341Z,99.90
2019-02-19T04:44:33.726Z,99.90
2019-02-19T04:47:02.200Z,99.90
2019-02-19T04:49:30.577Z,99.90
2019-02-19T04:51:59.211Z,99.90
2019-02-19T04:54:27.606Z,99.90
2019-02-19T04:56:55.993Z,99.90
2019-02-19T04:59:24.383Z,99.90
2019-02-19T05:01:52.804Z,99.90
2019-02-19T05:04:21.192Z,99.90
2019-02-19T05:06:49.610Z,99.90
2019-02-19T05:09:18.002Z,99.90
2019-02-19T05:11:46.389Z,99.90
2019-02-19T05:14:14.784Z,99.90
2019-02-19T05:16:44.282Z,99.90
2019-02-19T05:19:12.685Z,99.90
2019-02-19T05:21:41.067Z,99.90
2019-02-19T05:24:09.477Z,99.90
2019-02-19T05:26:37.865Z,99.90
2019-02-19T05:29:06.265Z,99.90
2019-02-19T05:31:34.652Z,99.90
2019-02-19T05:34:03.091Z,99.90
2019-02-19T05:36:31.482Z,99.90
2019-02-19T05:38:59.885Z,99.90
2019-02-19T05:41:28.268Z,99.90
2019-02-19T05:43:56.673Z,99.90
2019-02-19T05:46:25.062Z,99.90
2019-02-19T05:48:53.469Z,99.90
2019-02-19T05:51:21.853Z,99.90
2019-02-19T05:53:50.245Z,99.90
2019-02-19T05:56:18.632Z,99.90
2019-02-19T05:58:47.023Z,99.90
2019-02-19T06:01:15.416Z,99.90
2019-02-19T06:03:44.066Z,99.90
2019-02-19T06:06:12.452Z,99.90
2019-02-19T06:08:40.883Z,99.90
2019-02-19T06:11:09.354Z,99.90
2019-02-19T06:13:37.853Z,99.90
2019-02-19T06:16:06.253Z,99.90
2019-02-19T06:18:34.650Z,99.90
2019-02-19T06:21:03.147Z,99.90
2019-02-19T06:23:31.528Z,99.90
2019-02-19T06:25:59.918Z,99.90
2019-02-19T06:28:28.310Z,99.90
2019-02-19T06:30:56.713Z,99.90
2019-02-19T06:33:25.105Z,99.90
2019-02-19T06:35:53.497Z,99.90
2019-02-19T06:38:21.885Z,99.90
2019-02-19T06:40:50.291Z,99.90
2019-02-19T06:43:18.712Z,99.90
2019-02-19T06:45:47.073Z,99.90
2019-02-19T06:48:15.470Z,99.90
2019-02-19T06:50:43.869Z,99.90
2019-02-19T06:53:12.341Z,99.90
2019-02-19T06:55:40.733Z,99.90
2019-02-19T06:58:09.160Z,99.90
2019-02-19T07:00:37.543Z,99.90
2019-02-19T07:03:13.664Z,99.90
2019-02-19T07:05:42.149Z,99.90
2019-02-19T07:08:10.530Z,99.90
2019-02-19T07:10:38.925Z,99.90
2019-02-19T07:13:07.336Z,99.90
2019-02-19T07:15:35.795Z,99.90
2019-02-19T07:18:04.192Z,99.90
2019-02-19T07:20:32.598Z,99.90
2019-02-19T07:23:01.001Z,99.90
2019-02-19T07:25:29.461Z,99.90
2019-02-19T07:27:57.868Z,99.90
2019-02-19T07:30:26.257Z,99.90
2019-02-19T07:32:54.645Z,99.90
2019-02-19T07:35:23.045Z,99.90
2019-02-19T07:37:51.436Z,99.90
2019-02-19T07:40:19.906Z,99.90
2019-02-19T07:42:48.299Z,99.90
2019-02-19T07:45:16.687Z,99.90
2019-02-19T07:47:45.085Z,99.90
2019-02-19T07:50:13.473Z,99.90
2019-02-19T07:52:41.860Z,99.90
2019-02-19T07:55:11.127Z,99.90
2019-02-19T07:57:39.597Z,99.90
2019-02-19T08:00:13.554Z,99.90
2019-02-19T08:02:41.961Z,99.90
2019-02-19T08:05:10.361Z,99.90
2019-02-19T08:07:38.762Z,99.90
2019-02-19T08:10:12.501Z,99.90
2019-02-19T08:12:40.960Z,99.90
2019-02-19T08:15:11.836Z,99.90
2019-02-19T08:17:40.450Z,99.90
2019-02-19T08:20:15.959Z,99.90
2019-02-19T08:22:40.205Z,99.90
2019-02-19T08:25:08.766Z,99.90
2019-02-19T08:27:37.169Z,99.90
2019-02-19T08:30:08.776Z,99.90
2019-02-19T08:32:37.191Z,99.90
2019-02-19T08:35:07.254Z,99.90
2019-02-19T08:37:35.729Z,99.90
2019-02-19T08:40:05.460Z,99.90
2019-02-19T08:42:33.842Z,99.90
2019-02-19T08:45:02.245Z,99.90
2019-02-19T08:47:30.874Z,99.90
2019-02-19T08:49:59.262Z,99.90
2019-02-19T08:52:27.667Z,99.90
2019-02-19T08:54:56.065Z,99.90
2019-02-19T08:57:24.461Z,99.90
2019-02-19T08:59:52.865Z,99.90
2019-02-19T09:02:21.269Z,99.90
2019-02-19T09:04:49.729Z,99.90
2019-02-19T09:07:18.132Z,99.90
2019-02-19T09:09:46.568Z,99.90
2019-02-19T09:12:15.215Z,99.90
2019-02-19T09:14:43.625Z,99.90
2019-02-19T09:17:12.028Z,99.90
2019-02-19T09:19:40.492Z,99.90
2019-02-19T09:22:08.897Z,99.90
2019-02-19T09:24:37.284Z,99.90
2019-02-19T09:27:05.674Z,99.90
2019-02-19T09:29:34.074Z,99.90
2019-02-19T09:32:02.460Z,99.90
2019-02-19T09:34:30.860Z,99.90
2019-02-19T09:36:59.256Z,99.90
2019-02-19T09:39:27.641Z,99.90
2019-02-19T09:41:56.362Z,99.90
2019-02-19T09:44:24.765Z,99.90
2019-02-19T09:46:53.173Z,99.90
2019-02-19T09:49:21.569Z,99.90
2019-02-19T09:51:49.961Z,99.90
2019-02-19T09:54:18.365Z,99.90
2019-02-19T09:56:46.763Z,99.90
2019-02-19T09:59:15.167Z,99.90
2019-02-19T10:01:43.585Z,99.90
2019-02-19T10:04:11.983Z,99.90
2019-02-19T10:06:40.379Z,99.90
2019-02-19T10:09:10.418Z,99.90
2019-02-19T10:11:38.803Z,99.90
2019-02-19T10:14:07.202Z,99.90
2019-02-19T10:16:41.355Z,99.90
2019-02-19T10:19:05.701Z,99.90
2019-02-19T10:21:34.093Z,99.90
2019-02-19T10:24:02.493Z,99.90
2019-02-19T10:26:30.970Z,99.90
2019-02-19T10:28:59.432Z,99.90
2019-02-19T10:31:27.897Z,99.90
2019-02-19T10:33:56.310Z,99.90
2019-02-19T10:36:24.708Z,99.90
2019-02-19T10:38:53.113Z,99.90
2019-02-19T10:41:21.521Z,99.90
2019-02-19T10:43:49.912Z,99.90
2019-02-19T10:46:18.314Z,99.90
2019-02-19T10:48:46.726Z,99.90
2019-02-19T10:51:15.125Z,98.30
2019-02-19T10:53:43.517Z,99.90
2019-02-19T10:56:11.937Z,97.60
2019-02-19T10:58:40.326Z,96.80
2019-02-19T11:01:08.727Z,96.90
2019-02-19T11:03:37.137Z,98.00
2019-02-19T11:06:05.604Z,95.40
2019-02-19T11:08:34.072Z,96.00
2019-02-19T11:11:02.473Z,95.50
2019-02-19T11:13:30.875Z,95.70
2019-02-19T11:15:59.265Z,96.40
2019-02-19T11:18:28.686Z,95.70
2019-02-19T11:20:57.953Z,95.30
2019-02-19T11:23:26.345Z,94.40
2019-02-19T11:25:54.778Z,96.80
2019-02-19T11:28:23.152Z,99.10
2019-02-19T11:30:51.545Z,99.90
2019-02-19T11:33:19.964Z,99.40
2019-02-19T11:35:48.360Z,99.90
2019-02-19T11:38:16.762Z,99.90
2019-02-19T11:40:45.153Z,99.10
2019-02-19T11:43:13.536Z,96.30
2019-02-19T11:45:41.929Z,96.60
2019-02-19T11:48:10.328Z,94.90
2019-02-19T11:50:38.729Z,93.70
2019-02-19T11:53:07.129Z,95.50
2019-02-19T11:55:35.524Z,97.30
2019-02-19T11:58:04.078Z,96.40
2019-02-19T12:00:37.299Z,94.10
2019-02-19T12:03:05.684Z,96.10
2019-02-19T12:05:34.151Z,97.40
2019-02-19T12:08:02.556Z,99.90
2019-02-19T12:10:33.535Z,99.90
2019-02-19T12:13:01.921Z,99.90
2019-02-19T12:15:35.180Z,99.90
2019-02-19T12:18:00.704Z,99.90
2019-02-19T12:20:29.176Z,99.90
2019-02-19T12:22:57.575Z,99.90
2019-02-19T12:25:25.987Z,99.90
2019-02-19T12:27:54.381Z,99.30
2019-02-19T12:30:22.768Z,99.30
2019-02-19T12:32:51.222Z,99.90
2019-02-19T12:35:19.641Z,99.20
2019-02-19T12:37:48.018Z,99.60
2019-02-19T12:40:16.421Z,99.90
2019-02-19T12:42:44.820Z,99.90
2019-02-19T12:45:15.448Z,99.90
2019-02-19T12:47:43.866Z,97.50
2019-02-19T12:50:15.382Z,96.80
2019-02-19T12:52:44.621Z,97.10
2019-02-19T12:55:13.102Z,94.90
2019-02-19T12:57:41.507Z,93.40
2019-02-19T13:00:15.674Z,95.10
2019-02-19T13:02:44.285Z,96.90
2019-02-19T13:05:15.576Z,97.50
2019-02-19T13:07:43.966Z,99.20
2019-02-19T13:10:13.243Z,98.30
2019-02-19T13:12:41.624Z,95.30
2019-02-19T13:15:15.982Z,91.80
2019-02-19T13:17:44.390Z,87.70
2019-02-19T13:20:15.123Z,90.70
2019-02-19T13:22:43.509Z,92.60
2019-02-19T13:25:12.772Z,93.50
2019-02-19T13:27:41.237Z,94.00
2019-02-19T13:30:12.701Z,87.30
2019-02-19T13:32:41.105Z,88.50
2019-02-19T13:35:12.424Z,83.00
2019-02-19T13:37:40.839Z,85.50
2019-02-19T13:40:12.634Z,92.20
2019-02-19T13:42:41.037Z,94.40
2019-02-19T13:45:12.681Z,94.20
2019-02-19T13:47:41.074Z,93.70
2019-02-19T13:50:12.948Z,96.30
2019-02-19T13:52:43.029Z,95.70
2019-02-19T13:55:13.057Z,97.70
2019-02-19T13:57:41.453Z,99.70
2019-02-19T14:00:12.249Z,99.10
2019-02-19T14:02:40.657Z,99.90
2019-02-19T14:05:09.129Z,99.80
2019-02-19T14:07:37.531Z,99.90
2019-02-19T14:10:09.027Z,97.60
2019-02-19T14:12:37.432Z,99.10
2019-02-19T14:15:10.370Z,99.90
2019-02-19T14:17:38.764Z,99.90
2019-02-19T14:20:09.564Z,99.50
2019-02-19T14:22:58.001Z,97.40
2019-02-19T14:25:30.993Z,95.50
2019-02-19T14:28:01.019Z,94.10
2019-02-19T14:30:43.325Z,93.70
2019-02-19T14:33:13.442Z,93.50
2019-02-19T14:35:49.686Z,93.40
2019-02-19T14:38:25.901Z,96.40
2019-02-19T14:40:58.629Z,97.40
2019-02-19T14:43:43.897Z,96.90
2019-02-19T14:46:25.948Z,97.40
2019-02-19T14:48:55.980Z,97.60
2019-02-19T14:51:31.502Z,98.60
2019-02-19T14:54:01.546Z,99.20
2019-02-19T14:56:37.473Z,98.90
2019-02-19T14:59:07.518Z,99.70
2019-02-19T15:01:37.789Z,99.90
2019-02-19T15:04:24.356Z,99.30
2019-02-19T15:07:13.489Z,98.90
2019-02-19T15:09:59.339Z,99.90
2019-02-19T15:12:46.044Z,99.40
2019-02-19T15:15:31.361Z,99.50
2019-02-19T15:18:03.975Z,98.20
2019-02-19T15:20:43.021Z,96.00
2019-02-19T15:23:21.809Z,97.70
2019-02-19T15:26:07.256Z,96.50
2019-02-19T15:28:37.288Z,97.20
2019-02-19T15:31:23.609Z,96.50
2019-02-19T15:34:05.674Z,95.60
2019-02-19T15:36:52.226Z,95.80
2019-02-19T15:39:38.953Z,96.20
2019-02-19T15:42:25.595Z,93.90
2019-02-19T15:44:55.637Z,92.90
2019-02-19T15:47:31.420Z,94.40
2019-02-19T15:50:07.297Z,94.60
2019-02-19T15:52:37.326Z,94.10
2019-02-19T15:55:11.133Z,94.90
2019-02-19T15:57:46.880Z,96.70
2019-02-19T16:00:17.578Z,97.20
2019-02-19T16:02:47.628Z,98.30
2019-02-19T16:05:23.324Z,99.90
2019-02-19T16:08:09.857Z,99.90
2019-02-19T16:10:42.837Z,99.90
2019-02-19T16:13:12.882Z,99.90
2019-02-19T16:15:42.921Z,99.90
2019-02-19T16:18:21.771Z,99.90
2019-02-19T16:20:57.666Z,99.90
2019-02-19T16:23:46.057Z,99.90
2019-02-19T16:26:22.184Z,99.90
2019-02-19T16:28:52.211Z,99.90
2019-02-19T16:31:38.772Z,99.90
2019-02-19T16:34:25.337Z,99.90
2019-02-19T16:37:01.363Z,99.90
2019-02-19T16:39:43.452Z,99.90
2019-02-19T16:42:29.780Z,99.90
2019-02-19T16:45:02.817Z,99.90
2019-02-19T16:47:35.913Z,99.90
2019-02-19T16:50:14.413Z,99.90
2019-02-19T16:52:50.586Z,99.90
2019-02-19T16:55:35.974Z,99.90
2019-02-19T16:58:06.081Z,99.90
2019-02-19T17:00:36.205Z,99.90
2019-02-19T17:03:15.883Z,99.90
2019-02-19T17:05:45.909Z,99.90
2019-02-19T17:08:15.937Z,99.90
2019-02-19T17:10:45.982Z,99.90
2019-02-19T17:13:16.011Z,99.90
2019-02-19T17:15:46.038Z,99.90
2019-02-19T17:18:31.065Z,99.90
2019-02-19T17:21:17.570Z,99.90
2019-02-19T17:24:03.858Z,99.90
2019-02-19T17:26:42.957Z,99.90
2019-02-19T17:29:13.175Z,99.90
2019-02-19T17:32:01.304Z,99.90
2019-02-19T17:34:37.346Z,99.90
2019-02-19T17:37:13.111Z,99.90
2019-02-19T17:39:43.145Z,99.90
2019-02-19T17:42:13.185Z,99.90
2019-02-19T17:44:43.213Z,99.90
2019-02-19T17:47:22.224Z,99.90
2019-02-19T17:50:03.986Z,99.90
2019-02-19T17:52:48.760Z,99.90
2019-02-19T17:55:24.761Z,99.90
2019-02-19T17:58:13.105Z,99.90
2019-02-19T18:00:55.079Z,99.90
2019-02-19T18:03:33.761Z,99.90
2019-02-19T18:06:12.723Z,99.90
2019-02-19T18:08:42.755Z,99.90
2019-02-19T18:11:15.452Z,99.90
2019-02-19T18:14:01.821Z,99.90
2019-02-19T18:16:50.197Z,99.90
2019-02-19T18:19:18.594Z,99.90
2019-02-19T18:21:46.981Z,99.90
2019-02-19T18:24:15.451Z,99.90
2019-02-19T18:26:44.802Z,99.90
2019-02-19T18:29:13.825Z,99.90
2019-02-19T18:31:42.214Z,99.90
2019-02-19T18:34:10.610Z,99.90
2019-02-19T18:36:39.009Z,99.90
2019-02-19T18:39:07.471Z,99.90
2019-02-19T18:41:37.516Z,99.90
2019-02-19T18:44:05.909Z,99.90
2019-02-19T18:46:34.378Z,99.90
2019-02-19T18:49:02.766Z,99.90
2019-02-19T18:51:31.156Z,99.90
2019-02-19T18:54:00.048Z,99.90
2019-02-19T18:56:28.497Z,99.90
2019-02-19T18:58:56.900Z,99.90
2019-02-19T19:01:25.286Z,99.90
2019-02-19T19:03:53.729Z,99.90
2019-02-19T19:06:22.123Z,99.90
2019-02-19T19:08:50.512Z,99.90
2019-02-19T19:11:18.917Z,99.90
2019-02-19T19:13:47.325Z,99.90
2019-02-19T19:16:15.735Z,99.90
2019-02-19T19:18:44.137Z,99.90
2019-02-19T19:21:12.517Z,99.90
2019-02-19T19:23:40.925Z,99.90
2019-02-19T19:26:09.341Z,99.90
2019-02-19T19:28:37.734Z,99.90
2019-02-19T19:31:06.132Z,99.90
2019-02-19T19:33:34.514Z,99.90
2019-02-19T19:36:02.918Z,99.90
2019-02-19T19:38:31.328Z,99.90
2019-02-19T19:40:59.724Z,99.90
2019-02-19T19:43:28.226Z,99.90
2019-02-19T19:45:56.886Z,99.90
2019-02-19T19:48:25.316Z,99.90
2019-02-19T19:50:53.735Z,99.90
2019-02-19T19:53:22.173Z,99.90
2019-02-19T19:55:50.574Z,99.90
2019-02-19T19:58:18.973Z,99.90
2019-02-19T20:00:47.363Z,99.90
2019-02-19T20:03:15.758Z,99.90
2019-02-19T20:05:44.182Z,99.90
2019-02-19T20:08:12.764Z,99.90
2019-02-19T20:10:41.179Z,99.90
2019-02-19T20:13:09.606Z,99.90
2019-02-19T20:15:37.970Z,99.90
2019-02-19T20:18:06.356Z,99.90
2019-02-19T20:20:34.749Z,99.90
2019-02-19T20:23:03.137Z,99.90
2019-02-19T20:25:31.524Z,99.90
2019-02-19T20:27:59.918Z,99.90
2019-02-19T20:30:29.523Z,99.90
2019-02-19T20:32:58.041Z,99.90
2019-02-19T20:35:26.900Z,99.90
2019-02-19T20:37:55.400Z,99.90
2019-02-19T20:40:23.891Z,99.90
2019-02-19T20:42:52.272Z,99.90
2019-02-19T20:45:20.682Z,99.90
2019-02-19T20:47:49.073Z,99.90
2019-02-19T20:50:17.534Z,99.90
2019-02-19T20:52:45.929Z,99.90
2019-02-19T20:55:14.342Z,99.90
2019-02-19T20:57:42.740Z,99.90
2019-02-19T21:00:16.863Z,99.90
2019-02-19T21:02:46.205Z,99.90
2019-02-19T21:05:14.589Z,99.90
2019-02-19T21:07:42.968Z,99.90
2019-02-19T21:10:16.685Z,99.90
2019-02-19T21:12:45.076Z,99.90
2019-02-19T21:15:14.419Z,99.90
2019-02-19T21:17:42.800Z,99.90
2019-02-19T21:20:13.120Z,99.90
2019-02-19T21:23:00.855Z,99.90
2019-02-19T21:25:31.201Z,99.90
2019-02-19T21:27:59.357Z,99.90
2019-02-19T21:30:27.744Z,99.90
2019-02-19T21:32:56.138Z,99.90
2019-02-19T21:35:24.528Z,99.90
2019-02-19T21:37:52.921Z,99.90
2019-02-19T21:40:21.312Z,99.90
2019-02-19T21:42:49.718Z,99.90
2019-02-19T21:45:18.101Z,99.90
2019-02-19T21:47:46.490Z,99.90
2019-02-19T21:50:15.669Z,99.90
2019-02-19T21:52:44.332Z,99.90
2019-02-19T21:55:13.893Z,99.90
2019-02-19T21:57:42.288Z,99.90
2019-02-19T22:00:18.068Z,99.90
2019-02-19T22:02:46.457Z,99.90
2019-02-19T22:05:14.843Z,99.90
2019-02-19T22:07:43.225Z,99.90
2019-02-19T22:10:14.230Z,99.90
2019-02-19T22:12:42.608Z,99.90
2019-02-19T22:15:13.641Z,99.90
2019-02-19T22:17:42.102Z,99.90
2019-02-19T22:20:20.369Z,99.90
2019-02-19T22:22:48.760Z,99.90
2019-02-19T22:25:17.137Z,99.90
2019-02-19T22:27:45.528Z,99.90
2019-02-19T22:30:14.153Z,99.90
2019-02-19T22:32:42.541Z,99.90
2019-02-19T22:35:10.930Z,99.90
2019-02-19T22:37:39.340Z,99.90
2019-02-19T22:40:09.093Z,99.90
2019-02-19T22:42:37.485Z,99.90
2019-02-19T22:45:08.625Z,99.90
2019-02-19T22:47:37.270Z,99.90
2019-02-19T22:50:09.053Z,99.90
2019-02-19T22:52:37.457Z,99.90
2019-02-19T22:55:10.814Z,99.90
2019-02-19T22:57:39.197Z,99.90
2019-02-19T23:00:39.378Z,99.90
2019-02-19T23:03:07.940Z,99.90
2019-02-19T23:05:36.336Z,99.90
2019-02-19T23:08:04.781Z,99.90
2019-02-19T23:10:33.177Z,99.90
2019-02-19T23:13:01.560Z,99.90
2019-02-19T23:15:29.940Z,99.90
2019-02-19T23:17:58.341Z,99.90
2019-02-19T23:20:26.733Z,99.90
2019-02-19T23:22:55.123Z,99.90
2019-02-19T23:25:23.506Z,99.90
2019-02-19T23:27:51.900Z,99.90
2019-02-19T23:30:20.280Z,99.90
2019-02-19T23:32:48.674Z,99.90
2019-02-19T23:35:35.525Z,99.90
2019-02-19T23:38:03.912Z,99.90
2019-02-19T23:40:32.285Z,99.90
2019-02-19T23:43:00.690Z,99.90
2019-02-19T23:45:29.069Z,99.90
2019-02-19T23:47:57.528Z,99.90
2019-02-19T23:50:25.916Z,99.90
2019-02-19T23:52:54.338Z,99.90
2019-02-19T23:55:23.990Z,99.90
2019-02-19T23:57:52.384Z,99.90
